Sisseton, SD

2:01 AM CDT on July 05, 2015 (GMT -0500)
W Browns Valley Twp | | Change Station
CLOSE
Current Station
Personal Weather Station
Location: Beardsley, MN
Elevation: 1089 ft
Nearby Weather Stations

Elev 1089 ft 45.56 °N, 96.74 °W | Updated 9 seconds ago

Clear
Clear
69.4 °F
Feels Like 69.4 °F
N
2.5
Wind Variable Wind from ESE
Gusts 4.9 mph

Today
High -- | Low -- °F
--% Chance of Precip.
Yesterday
High -- | Low -- °F
Precip. -- in
5:44 AM 9:20 PM
Waning Gibbous, 87% visible
Pressure 29.82 in
Visibility 10.0 miles
Clouds Clear
Dew Point 67 °F
Humidity 92%
Rainfall 0.00 in
Snow Depth Not available.
UV 0 out of 12
Pollen 4.80 out of 12
Air Quality Not available.
Flu Activity Not available.
METAR KETH 050655Z AUTO 14009KT 10SM CLR 21/17 A2982 RMK AO2 LTG DSNT SW AND W

More Conditions Fewer Conditions

Pressure 29.82 in
Visibility 10.0 miles
Clouds Clear
Dew Point 67 °F
Humidity 92%
Rainfall 0.00 in
Snow Depth Not available.
UV 0 out of 12
Pollen 4.80 out of 12
Air Quality Not available.
Flu Activity Not available.
METAR KETH 050655Z AUTO 14009KT 10SM CLR 21/17 A2982 RMK AO2 LTG DSNT SW AND W

More Conditions Fewer Conditions

10-Day Weather Forecast

×

Almanac

Astronomy

Jul. 05, 2015 Rise Set
Actual Time
Civil Twilight
Nautical Twilight
Astronomical Twilight
Moon
Length of Visible Light
Length of Day
Tomorrow will be .
, % of the Moon is Illuminated

Today's Extremes

State Highs State Lows

Community

WunderPhotos

Upload Photos

1,835,215 photos uploaded!

WunderBlogs® & News

Nearby

Air Quality

  Air Quality AQ Index Pollutant
Not available.

Snow Depth

Station Depth Elevation

Earthquake Activity

City Distance Mag. Time & Date
Minimum magnitude displayed is 2.5.

Coastal Water Temperatures

Place Temperature

Stations

Nearby Weather Stations

Station Location Temp. Windchill Dew Point Humidity Wind Precip. Elev Updated Type